Time;durP1;ratioP1;P1;durP2;ratioP2;P2;SDS_P1;SDS_P2;PMS_P1;PMS_P2;Temp;Humidity;BMP_temperature;BMP_pressure;BME280_temperature;BME280_humidity;BME280_pressure;Samples;Min_cycle;Max_cycle;Signal;HPM_P1;HPM_P2
2021/10/07 00:01:02;;;;;;;0.10;0.10;;;;;;;;;;5004507;28;20061;-87
2021/10/07 00:03:28;;;;;;;21.77;2.80;;;;;;;;;;5002585;28;20030;-87
2021/10/07 00:05:54;;;;;;;0.10;0.10;;;;;;;;;;5004815;28;20281;-85
2021/10/07 00:08:20;;;;;;;0.10;0.10;;;;;;;;;;5001714;28;20359;-86
2021/10/07 00:10:46;;;;;;;0.32;0.32;;;;;;;;;;4993676;28;20676;-86
2021/10/07 00:13:13;;;;;;;1.17;0.87;;;;;;;;;;4998380;28;20050;-85
2021/10/07 00:15:39;;;;;;;0.10;0.10;;;;;;;;;;4998350;28;20038;-86
2021/10/07 00:18:05;;;;;;;0.10;0.10;;;;;;;;;;4998705;28;20037;-85
2021/10/07 00:20:31;;;;;;;0.20;0.20;;;;;;;;;;5001059;28;20068;-87
2021/10/07 00:22:57;;;;;;;0.10;0.10;;;;;;;;;;4998654;28;20092;-86
2021/10/07 00:25:23;;;;;;;0.10;0.10;;;;;;;;;;5001198;28;20037;-87
2021/10/07 00:27:49;;;;;;;0.20;0.20;;;;;;;;;;4997893;28;20739;-86
2021/10/07 00:30:17;;;;;;;0.10;0.10;;;;;;;;;;4993880;28;20615;-85
2021/10/07 00:36:27;;;;;;;0.10;0.10;;;;;;;;;;4940899;29;20040;-86
2021/10/07 00:41:22;;;;;;;0.63;0.63;;;;;;;;;;4939883;29;20099;-86
2021/10/07 00:43:48;;;;;;;0.10;0.10;;;;;;;;;;4944398;29;20043;-86
2021/10/07 00:46:14;;;;;;;0.22;0.22;;;;;;;;;;4943943;29;20035;-87
2021/10/07 00:48:40;;;;;;;0.55;0.55;;;;;;;;;;4943096;29;20126;-86
2021/10/07 00:51:06;;;;;;;0.10;0.10;;;;;;;;;;4937970;29;20047;-86
2021/10/07 00:53:32;;;;;;;0.93;0.85;;;;;;;;;;4943349;29;20034;-87
2021/10/07 00:56:01;;;;;;;0.10;0.10;;;;;;;;;;4931346;29;20043;-85
2021/10/07 00:58:27;;;;;;;0.10;0.10;;;;;;;;;;4936296;29;20481;-86
2021/10/07 01:00:53;;;;;;;0.00;0.00;;;;;;;;;;4939237;29;20043;-86
2021/10/07 01:03:19;;;;;;;0.70;0.70;;;;;;;;;;4934950;29;20087;-86
2021/10/07 01:05:46;;;;;;;0.20;0.20;;;;;;;;;;4939597;29;20027;-86
2021/10/07 01:08:12;;;;;;;0.20;0.20;;;;;;;;;;4942205;29;20035;-86
2021/10/07 01:10:38;;;;;;;0.10;0.10;;;;;;;;;;4989164;28;20038;-87
2021/10/07 01:13:06;;;;;;;0.17;0.17;;;;;;;;;;4989767;28;20360;-87
2021/10/07 01:15:32;;;;;;;0.10;0.10;;;;;;;;;;5002088;28;20034;-85
2021/10/07 01:17:58;;;;;;;0.20;0.20;;;;;;;;;;5001012;28;20037;-86
2021/10/07 01:20:24;;;;;;;0.20;0.20;;;;;;;;;;4998700;28;20050;-86
2021/10/07 01:22:50;;;;;;;0.63;0.63;;;;;;;;;;4990190;28;20105;-87
2021/10/07 01:25:16;;;;;;;0.50;0.50;;;;;;;;;;4998705;28;20491;-85
2021/10/07 01:27:42;;;;;;;0.15;0.15;;;;;;;;;;4993605;28;20422;-87
2021/10/07 01:30:10;;;;;;;2.10;1.50;;;;;;;;;;4994500;28;20488;-87
2021/10/07 01:32:37;;;;;;;0.10;0.10;;;;;;;;;;5000280;28;20041;-86
2021/10/07 01:35:07;;;;;;;0.10;0.10;;;;;;;;;;4995130;28;20030;-84
2021/10/07 01:37:34;;;;;;;0.05;0.05;;;;;;;;;;4991466;28;20030;-86
2021/10/07 01:40:00;;;;;;;0.10;0.10;;;;;;;;;;4994136;28;20544;-87
2021/10/07 01:42:26;;;;;;;1.27;1.00;;;;;;;;;;4989866;28;20031;-87
2021/10/07 01:44:53;;;;;;;0.10;0.10;;;;;;;;;;4991536;28;20542;-87
2021/10/07 01:47:19;;;;;;;0.15;0.15;;;;;;;;;;4991043;28;20038;-87
2021/10/07 01:49:45;;;;;;;0.10;0.10;;;;;;;;;;4998972;28;20076;-86
2021/10/07 01:52:11;;;;;;;0.20;0.20;;;;;;;;;;4993154;28;21369;-86
2021/10/07 01:54:37;;;;;;;0.20;0.20;;;;;;;;;;4996595;28;20072;-87
2021/10/07 01:57:04;;;;;;;0.03;0.03;;;;;;;;;;4995232;28;20038;-87
2021/10/07 01:59:30;;;;;;;0.10;0.10;;;;;;;;;;4995166;28;20048;-86
2021/10/07 02:01:56;;;;;;;0.20;0.20;;;;;;;;;;4999114;28;20118;-86
2021/10/07 02:04:22;;;;;;;0.20;0.20;;;;;;;;;;5001602;28;20113;-87
2021/10/07 02:06:48;;;;;;;0.20;0.20;;;;;;;;;;4996913;28;20081;-86
2021/10/07 02:09:14;;;;;;;0.10;0.10;;;;;;;;;;4997218;28;20040;-86
2021/10/07 02:11:40;;;;;;;0.10;0.10;;;;;;;;;;4994612;28;20037;-86
2021/10/07 02:14:06;;;;;;;2.70;1.93;;;;;;;;;;4993491;28;20049;-86
2021/10/07 02:16:33;;;;;;;0.13;0.13;;;;;;;;;;4990822;28;20285;-87
2021/10/07 02:18:59;;;;;;;;;;;;;;;;;;4995634;28;20543;-86
2021/10/07 02:21:26;;;;;;;0.80;0.80;;;;;;;;;;4991305;28;19910;-86
2021/10/07 02:23:53;;;;;;;3.28;1.60;;;;;;;;;;4991956;28;20038;-86
2021/10/07 02:26:19;;;;;;;;;;;;;;;;;;4992461;28;20057;-86
2021/10/07 02:28:45;;;;;;;2.40;0.57;;;;;;;;;;4989903;28;19948;-86
2021/10/07 02:31:11;;;;;;;0.10;0.10;;;;;;;;;;4989513;28;20073;-85
2021/10/07 02:33:37;;;;;;;0.05;0.05;;;;;;;;;;4998896;28;20050;-86
2021/10/07 02:36:04;;;;;;;4.93;2.30;;;;;;;;;;4994221;28;20549;-87
2021/10/07 02:38:30;;;;;;;0.30;0.30;;;;;;;;;;4995455;28;20030;-86
2021/10/07 02:40:56;;;;;;;10.40;1.60;;;;;;;;;;4995836;28;20037;-85
2021/10/07 02:43:22;;;;;;;9.63;2.20;;;;;;;;;;5003443;28;20276;-86
2021/10/07 02:45:48;;;;;;;0.30;0.28;;;;;;;;;;4996364;28;20113;-87
2021/10/07 02:48:15;;;;;;;0.10;0.10;;;;;;;;;;4994395;28;20026;-87
2021/10/07 02:50:41;;;;;;;0.30;0.30;;;;;;;;;;4996522;28;20490;-84
2021/10/07 02:53:07;;;;;;;8.03;1.50;;;;;;;;;;4994731;28;21054;-86
2021/10/07 02:55:33;;;;;;;0.53;0.43;;;;;;;;;;5000384;28;20036;-84
2021/10/07 02:57:59;;;;;;;30.77;2.28;;;;;;;;;;4995233;28;20091;-86
2021/10/07 03:00:25;;;;;;;1.40;1.07;;;;;;;;;;4996304;28;20022;-85
2021/10/07 03:02:51;;;;;;;67.00;8.57;;;;;;;;;;4998110;28;20033;-86
2021/10/07 03:05:17;;;;;;;0.20;0.20;;;;;;;;;;4995477;28;20310;-85
2021/10/07 03:07:43;;;;;;;0.10;0.10;;;;;;;;;;4994722;28;20041;-86
2021/10/07 03:10:09;;;;;;;0.00;0.00;;;;;;;;;;4998007;28;20030;-85
2021/10/07 03:12:35;;;;;;;0.10;0.10;;;;;;;;;;4994360;28;20042;-88
2021/10/07 03:15:02;;;;;;;0.30;0.30;;;;;;;;;;4994751;28;20160;-87
2021/10/07 03:17:28;;;;;;;24.23;1.65;;;;;;;;;;4995018;28;20049;-87
2021/10/07 03:19:54;;;;;;;0.77;0.77;;;;;;;;;;4993243;28;20608;-87
2021/10/07 03:22:21;;;;;;;0.20;0.20;;;;;;;;;;4995232;28;20049;-86
2021/10/07 03:24:47;;;;;;;0.10;0.10;;;;;;;;;;4992769;28;20026;-86
2021/10/07 03:27:13;;;;;;;0.10;0.10;;;;;;;;;;4993368;28;20037;-87
2021/10/07 03:29:39;;;;;;;0.47;0.47;;;;;;;;;;4993631;28;20018;-86
2021/10/07 03:32:06;;;;;;;0.13;0.13;;;;;;;;;;5002510;28;20412;-85
2021/10/07 03:34:32;;;;;;;0.28;0.28;;;;;;;;;;5001602;28;20037;-86
2021/10/07 03:36:58;;;;;;;0.10;0.10;;;;;;;;;;4996388;28;20049;-87
2021/10/07 03:39:24;;;;;;;0.32;0.32;;;;;;;;;;4993352;28;20482;-86
2021/10/07 03:41:50;;;;;;;1.60;1.20;;;;;;;;;;5024868;28;20037;-87
2021/10/07 03:44:16;;;;;;;0.03;0.03;;;;;;;;;;4993683;28;20391;-88
2021/10/07 03:46:42;;;;;;;4.22;1.40;;;;;;;;;;4997537;28;20919;-88
2021/10/07 03:49:08;;;;;;;1.60;0.60;;;;;;;;;;4993273;28;20034;-86
2021/10/07 03:51:34;;;;;;;0.10;0.10;;;;;;;;;;4991824;28;20651;-85
2021/10/07 03:54:00;;;;;;;0.10;0.10;;;;;;;;;;4995248;28;20026;-85
2021/10/07 03:56:26;;;;;;;0.03;0.03;;;;;;;;;;4993192;28;20026;-87
2021/10/07 03:58:53;;;;;;;0.10;0.10;;;;;;;;;;4993701;28;20057;-85
2021/10/07 04:01:19;;;;;;;0.08;0.08;;;;;;;;;;4999704;28;20032;-86
2021/10/07 04:03:45;;;;;;;0.10;0.10;;;;;;;;;;4993736;28;20034;-86
2021/10/07 04:06:11;;;;;;;0.53;0.43;;;;;;;;;;4995220;28;20026;-85
2021/10/07 04:08:37;;;;;;;0.10;0.10;;;;;;;;;;4995879;28;20034;-86
2021/10/07 04:11:03;;;;;;;0.32;0.30;;;;;;;;;;4993733;28;20613;-86
2021/10/07 04:13:29;;;;;;;0.10;0.10;;;;;;;;;;4990504;28;20046;-85
2021/10/07 04:15:56;;;;;;;0.25;0.25;;;;;;;;;;4994380;28;20523;-87
2021/10/07 04:18:22;;;;;;;0.10;0.10;;;;;;;;;;4991403;28;20088;-85
2021/10/07 04:20:49;;;;;;;0.10;0.10;;;;;;;;;;4995907;28;20346;-87
2021/10/07 04:23:15;;;;;;;;;;;;;;;;;;4996034;28;20058;-86
2021/10/07 04:25:41;;;;;;;0.10;0.10;;;;;;;;;;4992075;28;20361;-84
2021/10/07 04:28:07;;;;;;;0.20;0.20;;;;;;;;;;4994224;28;20034;-85
2021/10/07 04:30:37;;;;;;;0.10;0.10;;;;;;;;;;4991594;28;20026;-85
2021/10/07 04:33:04;;;;;;;0.20;0.20;;;;;;;;;;4994116;28;20923;-85
2021/10/07 04:35:30;;;;;;;0.30;0.30;;;;;;;;;;4999408;28;20034;-85
2021/10/07 04:37:56;;;;;;;0.10;0.10;;;;;;;;;;4993887;28;20038;-85
2021/10/07 04:40:23;;;;;;;0.20;0.20;;;;;;;;;;5012157;28;20856;-84
2021/10/07 04:42:49;;;;;;;0.10;0.10;;;;;;;;;;5001466;28;20304;-85
2021/10/07 04:45:15;;;;;;;0.70;0.70;;;;;;;;;;4998366;28;20053;-85
2021/10/07 04:47:41;;;;;;;0.10;0.10;;;;;;;;;;5002893;28;20397;-86
2021/10/07 04:50:07;;;;;;;0.20;0.20;;;;;;;;;;5002075;28;20029;-87
2021/10/07 04:52:34;;;;;;;0.75;0.75;;;;;;;;;;5004495;28;20050;-88
2021/10/07 04:55:00;;;;;;;0.30;0.30;;;;;;;;;;4999983;28;20628;-89
2021/10/07 04:57:26;;;;;;;0.10;0.10;;;;;;;;;;5001391;28;20030;-87
2021/10/07 04:59:52;;;;;;;0.10;0.10;;;;;;;;;;5000610;28;20288;-90
2021/10/07 05:02:18;;;;;;;0.10;0.10;;;;;;;;;;4993820;28;20032;-85
2021/10/07 05:04:44;;;;;;;0.23;0.20;;;;;;;;;;4994666;28;20116;-84
2021/10/07 05:07:10;;;;;;;0.22;0.22;;;;;;;;;;4996459;28;20041;-87
2021/10/07 05:09:36;;;;;;;0.10;0.10;;;;;;;;;;4992632;28;20030;-85
2021/10/07 05:12:02;;;;;;;0.15;0.15;;;;;;;;;;4997920;28;20050;-88
2021/10/07 05:14:28;;;;;;;0.10;0.10;;;;;;;;;;4996167;28;20032;-86
2021/10/07 05:16:54;;;;;;;0.10;0.10;;;;;;;;;;4987569;28;20106;-87
2021/10/07 05:19:20;;;;;;;1.88;1.35;;;;;;;;;;5006757;28;20169;-87
2021/10/07 05:21:47;;;;;;;0.00;0.00;;;;;;;;;;5002280;28;20018;-87
2021/10/07 05:24:13;;;;;;;0.00;0.00;;;;;;;;;;5003553;28;20035;-89
2021/10/07 05:26:39;;;;;;;0.10;0.10;;;;;;;;;;4998931;28;20037;-87
2021/10/07 05:29:05;;;;;;;0.60;0.60;;;;;;;;;;5003588;28;20034;-86
2021/10/07 05:31:31;;;;;;;2.92;1.58;;;;;;;;;;5004444;28;20064;-87
2021/10/07 05:33:57;;;;;;;0.10;0.10;;;;;;;;;;5019167;28;20034;-86
2021/10/07 05:36:23;;;;;;;4.97;0.90;;;;;;;;;;5003653;28;20033;-85
2021/10/07 05:38:49;;;;;;;0.35;0.35;;;;;;;;;;5003890;28;20514;-85
2021/10/07 05:41:15;;;;;;;0.00;0.00;;;;;;;;;;5002577;28;20101;-84
2021/10/07 05:43:41;;;;;;;1.65;1.25;;;;;;;;;;5004009;28;20030;-83
2021/10/07 05:46:07;;;;;;;0.10;0.10;;;;;;;;;;5004085;28;20101;-86
2021/10/07 05:48:34;;;;;;;0.10;0.10;;;;;;;;;;5004280;28;20767;-87
2021/10/07 05:51:00;;;;;;;0.10;0.10;;;;;;;;;;5004153;28;20393;-85
2021/10/07 05:53:26;;;;;;;0.10;0.10;;;;;;;;;;5003410;28;20049;-84
2021/10/07 05:55:52;;;;;;;0.10;0.10;;;;;;;;;;5003784;28;20057;-86
2021/10/07 05:58:18;;;;;;;0.10;0.10;;;;;;;;;;5005279;28;20338;-82
2021/10/07 06:00:44;;;;;;;4.57;1.77;;;;;;;;;;5002484;28;20034;-85
2021/10/07 06:03:11;;;;;;;0.15;0.15;;;;;;;;;;5003682;28;20083;-84
2021/10/07 06:05:37;;;;;;;0.20;0.20;;;;;;;;;;5001945;28;20771;-84
2021/10/07 06:08:04;;;;;;;0.20;0.20;;;;;;;;;;5003468;28;20030;-84
2021/10/07 06:10:30;;;;;;;1.30;1.25;;;;;;;;;;5004184;28;20041;-86
2021/10/07 06:12:56;;;;;;;0.20;0.20;;;;;;;;;;5006223;28;20049;-88
2021/10/07 06:15:24;;;;;;;0.43;0.43;;;;;;;;;;5005530;28;20026;-87
2021/10/07 06:17:50;;;;;;;0.10;0.10;;;;;;;;;;5006782;28;20458;-86
2021/10/07 06:20:38;;;;;;;0.30;0.30;;;;;;;;;;5004715;28;20054;-86
2021/10/07 06:23:04;;;;;;;0.10;0.10;;;;;;;;;;4991981;28;20042;-85
2021/10/07 06:25:30;;;;;;;0.10;0.10;;;;;;;;;;5008827;28;20382;-86
2021/10/07 06:27:56;;;;;;;0.10;0.10;;;;;;;;;;5006217;28;20030;-86
2021/10/07 06:30:23;;;;;;;0.20;0.20;;;;;;;;;;5007269;28;20033;-84
2021/10/07 06:32:49;;;;;;;0.10;0.10;;;;;;;;;;5007118;28;20041;-84
2021/10/07 06:35:16;;;;;;;0.10;0.10;;;;;;;;;;5005301;28;20545;-85
2021/10/07 06:37:42;;;;;;;0.10;0.10;;;;;;;;;;5006070;28;20423;-84
2021/10/07 06:40:08;;;;;;;0.10;0.10;;;;;;;;;;5006812;28;20465;-85
2021/10/07 06:42:35;;;;;;;0.30;0.30;;;;;;;;;;4996475;28;20060;-86
2021/10/07 06:45:04;;;;;;;0.20;0.20;;;;;;;;;;4998037;28;20040;-84
2021/10/07 06:47:30;;;;;;;0.10;0.10;;;;;;;;;;5006534;28;20041;-86
2021/10/07 06:49:56;;;;;;;0.20;0.20;;;;;;;;;;5005614;28;20755;-85
2021/10/07 06:52:23;;;;;;;0.00;0.00;;;;;;;;;;4997762;28;20447;-86
2021/10/07 06:54:49;;;;;;;0.00;0.00;;;;;;;;;;5006088;28;20407;-85
2021/10/07 06:57:15;;;;;;;0.20;0.20;;;;;;;;;;5006168;28;20108;-85
2021/10/07 06:59:41;;;;;;;0.30;0.30;;;;;;;;;;5006119;28;20054;-84
2021/10/07 07:02:07;;;;;;;0.10;0.10;;;;;;;;;;5006762;28;20064;-85
2021/10/07 07:04:33;;;;;;;0.10;0.10;;;;;;;;;;5008046;28;20272;-85
2021/10/07 07:06:59;;;;;;;0.32;0.32;;;;;;;;;;5007349;28;20403;-84
2021/10/07 07:09:25;;;;;;;0.03;0.03;;;;;;;;;;5005818;28;20485;-86
2021/10/07 07:11:51;;;;;;;0.60;0.60;;;;;;;;;;5004070;28;20802;-86
2021/10/07 07:14:18;;;;;;;0.00;0.00;;;;;;;;;;4999881;28;20030;-85
2021/10/07 07:16:44;;;;;;;0.10;0.10;;;;;;;;;;5005934;28;20030;-85
2021/10/07 07:19:10;;;;;;;0.03;0.03;;;;;;;;;;5008106;28;20518;-84
2021/10/07 07:21:36;;;;;;;0.00;0.00;;;;;;;;;;5006246;28;20536;-84
2021/10/07 07:24:03;;;;;;;0.00;0.00;;;;;;;;;;5005396;28;20034;-84
2021/10/07 07:26:29;;;;;;;;;;;;;;;;;;5006290;28;20030;-84
2021/10/07 07:28:55;;;;;;;0.20;0.17;;;;;;;;;;5005730;28;19916;-83
2021/10/07 07:31:22;;;;;;;0.10;0.10;;;;;;;;;;5007952;28;20133;-84
2021/10/07 07:33:48;;;;;;;0.00;0.00;;;;;;;;;;5005659;28;20045;-83
2021/10/07 07:36:15;;;;;;;0.00;0.00;;;;;;;;;;5006028;28;20030;-85
2021/10/07 07:38:43;;;;;;;0.05;0.05;;;;;;;;;;5005547;28;20022;-85
2021/10/07 07:41:10;;;;;;;0.10;0.10;;;;;;;;;;5005317;28;20064;-85
2021/10/07 07:43:36;;;;;;;;;;;;;;;;;;5006810;28;20030;-85
2021/10/07 07:46:02;;;;;;;0.10;0.10;;;;;;;;;;5006930;28;19910;-85
2021/10/07 07:48:28;;;;;;;0.00;0.00;;;;;;;;;;5005203;28;20522;-84
2021/10/07 07:50:55;;;;;;;0.03;0.03;;;;;;;;;;5005100;28;20041;-84
2021/10/07 07:53:21;;;;;;;2.53;0.70;;;;;;;;;;5005404;28;20429;-83
2021/10/07 07:55:47;;;;;;;0.10;0.10;;;;;;;;;;5004934;28;20018;-83
2021/10/07 07:58:13;;;;;;;0.10;0.10;;;;;;;;;;5007225;28;20042;-83
2021/10/07 08:00:39;;;;;;;0.05;0.05;;;;;;;;;;5005236;28;20026;-83
2021/10/07 08:03:06;;;;;;;0.00;0.00;;;;;;;;;;5004760;28;20042;-83
2021/10/07 08:05:32;;;;;;;0.10;0.10;;;;;;;;;;5005244;28;20080;-84
2021/10/07 08:07:58;;;;;;;0.22;0.15;;;;;;;;;;5004924;28;20039;-82
2021/10/07 08:10:24;;;;;;;0.73;0.68;;;;;;;;;;5002851;28;20057;-84
2021/10/07 08:12:51;;;;;;;0.10;0.10;;;;;;;;;;5004581;28;20121;-84
2021/10/07 08:15:17;;;;;;;0.15;0.15;;;;;;;;;;5003160;28;20042;-85
2021/10/07 08:17:44;;;;;;;0.00;0.00;;;;;;;;;;5004706;28;20060;-84
2021/10/07 08:20:11;;;;;;;0.00;0.00;;;;;;;;;;5004797;28;20050;-84
2021/10/07 08:22:37;;;;;;;0.10;0.10;;;;;;;;;;5005668;28;20025;-84
2021/10/07 08:25:03;;;;;;;0.10;0.10;;;;;;;;;;5006054;28;20029;-84
2021/10/07 08:27:29;;;;;;;0.00;0.00;;;;;;;;;;5004497;28;20144;-83
2021/10/07 08:29:56;;;;;;;0.10;0.10;;;;;;;;;;5006752;28;20446;-84
2021/10/07 08:32:23;;;;;;;0.08;0.08;;;;;;;;;;5004517;28;20120;-85
2021/10/07 08:34:48;;;;;;;;;;;;;;;;;;5005044;28;20085;-83
2021/10/07 08:37:15;;;;;;;0.00;0.00;;;;;;;;;;5006628;28;20639;-84
2021/10/07 08:39:41;;;;;;;0.10;0.10;;;;;;;;;;5004954;28;20084;-83
2021/10/07 08:42:07;;;;;;;0.10;0.10;;;;;;;;;;5005143;28;20383;-83
2021/10/07 08:44:33;;;;;;;0.10;0.10;;;;;;;;;;5004275;28;21008;-84
2021/10/07 08:47:00;;;;;;;0.17;0.17;;;;;;;;;;5003417;28;20278;-84
2021/10/07 08:49:29;;;;;;;0.00;0.00;;;;;;;;;;5006403;28;20014;-83
2021/10/07 08:51:55;;;;;;;0.10;0.10;;;;;;;;;;5004324;28;20107;-83
2021/10/07 08:54:21;;;;;;;0.60;0.30;;;;;;;;;;5003762;28;20498;-83
2021/10/07 08:56:49;;;;;;;0.10;0.10;;;;;;;;;;5003940;28;20030;-85
2021/10/07 08:59:16;;;;;;;0.10;0.10;;;;;;;;;;5003780;28;20100;-84
2021/10/07 09:01:46;;;;;;;0.00;0.00;;;;;;;;;;5003789;28;20038;-84
2021/10/07 09:04:23;;;;;;;0.10;0.10;;;;;;;;;;5004372;28;20506;-84
2021/10/07 09:06:51;;;;;;;0.10;0.10;;;;;;;;;;5003800;28;20084;-84
2021/10/07 09:09:17;;;;;;;0.00;0.00;;;;;;;;;;5003380;28;20026;-84
2021/10/07 09:11:45;;;;;;;;;;;;;;;;;;5002447;28;20037;-83
2021/10/07 09:14:13;;;;;;;0.00;0.00;;;;;;;;;;5002352;28;19968;-83
2021/10/07 09:16:46;;;;;;;0.00;0.00;;;;;;;;;;5004591;28;20532;-84
2021/10/07 09:19:13;;;;;;;0.00;0.00;;;;;;;;;;5004270;28;20065;-84
2021/10/07 09:21:39;;;;;;;0.20;0.20;;;;;;;;;;5003935;28;20113;-85
2021/10/07 09:24:25;;;;;;;0.38;0.38;;;;;;;;;;5003020;28;20491;-84
2021/10/07 09:26:51;;;;;;;0.00;0.00;;;;;;;;;;5003791;28;22450;-85
2021/10/07 09:29:17;;;;;;;0.10;0.10;;;;;;;;;;5003581;28;20558;-85
2021/10/07 09:31:43;;;;;;;0.10;0.10;;;;;;;;;;5003449;28;20285;-86
2021/10/07 09:34:10;;;;;;;0.13;0.13;;;;;;;;;;5005726;28;20125;-83
2021/10/07 09:36:36;;;;;;;0.10;0.10;;;;;;;;;;5003329;28;20030;-84
2021/10/07 09:39:03;;;;;;;0.45;0.45;;;;;;;;;;5003163;28;20640;-85
2021/10/07 09:41:31;;;;;;;0.00;0.00;;;;;;;;;;5003233;28;20033;-83
2021/10/07 09:44:00;;;;;;;0.00;0.00;;;;;;;;;;4987800;28;20880;-85
2021/10/07 09:46:43;;;;;;;0.30;0.30;;;;;;;;;;5000812;28;20026;-84
2021/10/07 09:49:09;;;;;;;0.10;0.10;;;;;;;;;;5003348;28;20042;-85
2021/10/07 09:51:46;;;;;;;0.00;0.00;;;;;;;;;;5002624;28;20073;-85
2021/10/07 09:54:16;;;;;;;1.85;1.45;;;;;;;;;;5003233;28;20952;-84
2021/10/07 09:56:52;;;;;;;0.17;0.17;;;;;;;;;;5002972;28;20495;-85
2021/10/07 09:59:18;;;;;;;1.30;0.83;;;;;;;;;;5003287;28;20038;-85
2021/10/07 10:01:44;;;;;;;0.30;0.30;;;;;;;;;;5003161;28;20848;-85
2021/10/07 10:04:10;;;;;;;0.05;0.05;;;;;;;;;;5005452;28;20030;-85
2021/10/07 10:06:36;;;;;;;1.90;0.98;;;;;;;;;;5003033;28;20036;-85
2021/10/07 10:09:02;;;;;;;0.03;0.03;;;;;;;;;;5002785;28;20076;-84
2021/10/07 10:11:28;;;;;;;1.55;0.80;;;;;;;;;;5003114;28;20285;-84
2021/10/07 10:13:55;;;;;;;0.53;0.53;;;;;;;;;;5003209;28;20033;-86
2021/10/07 10:16:21;;;;;;;0.00;0.00;;;;;;;;;;5005266;28;20133;-85
2021/10/07 10:18:53;;;;;;;0.08;0.08;;;;;;;;;;5002866;28;20494;-86
2021/10/07 10:21:21;;;;;;;0.10;0.10;;;;;;;;;;5002763;28;20560;-86
2021/10/07 10:23:47;;;;;;;0.08;0.08;;;;;;;;;;5002745;28;20080;-86
2021/10/07 10:26:14;;;;;;;0.00;0.00;;;;;;;;;;5003027;28;20118;-85
2021/10/07 10:29:01;;;;;;;0.10;0.10;;;;;;;;;;5002994;28;20030;-85
2021/10/07 10:31:30;;;;;;;0.00;0.00;;;;;;;;;;5000562;28;20129;-86
2021/10/07 10:34:04;;;;;;;0.43;0.43;;;;;;;;;;5002384;28;20041;-86
2021/10/07 10:36:33;;;;;;;0.10;0.10;;;;;;;;;;5002377;28;20515;-86
2021/10/07 10:39:11;;;;;;;0.20;0.20;;;;;;;;;;5002808;28;20410;-86
2021/10/07 10:41:43;;;;;;;0.13;0.13;;;;;;;;;;5002784;28;20844;-85
2021/10/07 10:44:27;;;;;;;0.00;0.00;;;;;;;;;;5002517;28;20434;-85
2021/10/07 10:47:08;;;;;;;0.20;0.17;;;;;;;;;;5002549;28;20030;-85
2021/10/07 10:49:41;;;;;;;0.00;0.00;;;;;;;;;;5000748;28;20762;-85
2021/10/07 10:52:18;;;;;;;0.00;0.00;;;;;;;;;;5004321;28;20044;-86
2021/10/07 10:54:58;;;;;;;0.13;0.13;;;;;;;;;;5002502;28;20034;-86
2021/10/07 10:57:25;;;;;;;1.08;0.32;;;;;;;;;;5002615;28;20037;-85
2021/10/07 11:00:12;;;;;;;3.03;0.25;;;;;;;;;;5005834;28;20121;-85
2021/10/07 11:02:39;;;;;;;0.35;0.35;;;;;;;;;;5005826;28;20125;-87
2021/10/07 11:05:04;;;;;;;;;;;;;;;;;;5006561;28;20038;-88
2021/10/07 11:07:35;;;;;;;0.10;0.10;;;;;;;;;;5007223;28;19912;-86
2021/10/07 11:10:06;;;;;;;0.00;0.00;;;;;;;;;;5005906;28;20040;-85
2021/10/07 11:13:01;;;;;;;0.30;0.30;;;;;;;;;;5005927;28;20049;-87
2021/10/07 11:15:28;;;;;;;0.00;0.00;;;;;;;;;;4991584;28;20042;-86
2021/10/07 11:17:55;;;;;;;0.70;0.65;;;;;;;;;;5004893;28;20038;-85
2021/10/07 11:20:21;;;;;;;;;;;;;;;;;;5005952;28;20095;-86
2021/10/07 11:23:20;;;;;;;0.28;0.28;;;;;;;;;;5005594;28;19996;-87
2021/10/07 11:25:47;;;;;;;0.00;0.00;;;;;;;;;;4962195;28;20133;-85
2021/10/07 11:28:13;;;;;;;0.10;0.10;;;;;;;;;;4965766;28;20046;-87
2021/10/07 11:30:42;;;;;;;0.00;0.00;;;;;;;;;;4963989;28;20117;-85
2021/10/07 11:33:08;;;;;;;1.13;0.30;;;;;;;;;;4963367;28;20543;-86
2021/10/07 11:35:35;;;;;;;0.65;0.65;;;;;;;;;;4963632;28;20039;-86
2021/10/07 11:38:03;;;;;;;0.00;0.00;;;;;;;;;;4963839;28;20051;-86
2021/10/07 11:40:31;;;;;;;3.60;0.40;;;;;;;;;;4966002;28;20033;-87
2021/10/07 11:42:59;;;;;;;0.00;0.00;;;;;;;;;;4963833;28;20046;-85
2021/10/07 11:45:29;;;;;;;0.30;0.30;;;;;;;;;;4963262;28;20038;-86
2021/10/07 11:47:56;;;;;;;7.03;1.85;;;;;;;;;;4962971;28;20050;-86
2021/10/07 11:50:23;;;;;;;0.10;0.10;;;;;;;;;;4963906;28;20037;-85
2021/10/07 11:52:50;;;;;;;0.00;0.00;;;;;;;;;;4963219;28;20151;-87
2021/10/07 11:55:19;;;;;;;0.00;0.00;;;;;;;;;;4965222;28;20496;-86
2021/10/07 11:57:47;;;;;;;0.32;0.28;;;;;;;;;;4962890;28;20189;-86
2021/10/07 12:00:13;;;;;;;0.08;0.08;;;;;;;;;;4963003;28;20034;-86
2021/10/07 12:02:39;;;;;;;0.00;0.00;;;;;;;;;;4994282;28;20520;-85
2021/10/07 12:05:15;;;;;;;0.10;0.10;;;;;;;;;;5004223;28;20030;-86
2021/10/07 12:07:41;;;;;;;0.10;0.10;;;;;;;;;;5005723;28;20273;-84
2021/10/07 12:10:07;;;;;;;0.00;0.00;;;;;;;;;;5006142;28;20037;-83
2021/10/07 12:12:33;;;;;;;0.00;0.00;;;;;;;;;;5004457;28;20038;-83
2021/10/07 12:14:59;;;;;;;0.32;0.30;;;;;;;;;;5002686;28;20037;-84
2021/10/07 12:17:26;;;;;;;0.10;0.10;;;;;;;;;;5003924;28;20029;-84
2021/10/07 12:19:52;;;;;;;1.15;0.25;;;;;;;;;;5004189;28;20054;-86
2021/10/07 12:22:27;;;;;;;0.20;0.20;;;;;;;;;;5006429;28;20037;-86
2021/10/07 12:25:02;;;;;;;0.00;0.00;;;;;;;;;;5004264;28;20083;-86
2021/10/07 12:27:32;;;;;;;0.32;0.32;;;;;;;;;;5004076;28;20507;-86
2021/10/07 12:30:07;;;;;;;1.85;0.63;;;;;;;;;;5004088;28;20096;-86
2021/10/07 12:32:33;;;;;;;0.17;0.17;;;;;;;;;;5003732;28;20033;-87
2021/10/07 12:35:00;;;;;;;0.00;0.00;;;;;;;;;;5004511;28;20026;-84
2021/10/07 12:37:29;;;;;;;0.45;0.43;;;;;;;;;;5006297;28;20159;-84
2021/10/07 12:39:59;;;;;;;0.20;0.20;;;;;;;;;;5004007;28;20084;-84
2021/10/07 12:42:26;;;;;;;0.00;0.00;;;;;;;;;;5003794;28;20041;-84
2021/10/07 12:44:59;;;;;;;0.00;0.00;;;;;;;;;;5003806;28;20040;-84
2021/10/07 12:47:30;;;;;;;0.05;0.05;;;;;;;;;;5004145;28;20430;-84
2021/10/07 12:49:58;;;;;;;0.00;0.00;;;;;;;;;;5003985;28;20123;-84
2021/10/07 12:52:25;;;;;;;0.10;0.10;;;;;;;;;;5006374;28;20041;-84
2021/10/07 12:54:53;;;;;;;0.10;0.10;;;;;;;;;;5003969;28;20038;-83
2021/10/07 12:57:34;;;;;;;0.20;0.20;;;;;;;;;;5003696;28;20160;-86
2021/10/07 13:00:00;;;;;;;0.00;0.00;;;;;;;;;;5003468;28;20030;-86
2021/10/07 13:02:27;;;;;;;0.00;0.00;;;;;;;;;;5003975;28;20128;-86
2021/10/07 13:04:53;;;;;;;0.10;0.10;;;;;;;;;;5004269;28;20110;-86
2021/10/07 13:07:23;;;;;;;0.17;0.17;;;;;;;;;;5005968;28;20030;-86
2021/10/07 13:09:49;;;;;;;0.00;0.00;;;;;;;;;;5003931;28;20053;-83
2021/10/07 13:12:15;;;;;;;0.10;0.10;;;;;;;;;;5001455;28;20660;-84
2021/10/07 13:14:41;;;;;;;1.10;0.25;;;;;;;;;;5001561;28;20037;-84
2021/10/07 13:17:07;;;;;;;0.00;0.00;;;;;;;;;;5001335;28;20069;-84
2021/10/07 13:19:33;;;;;;;0.07;0.07;;;;;;;;;;5004952;28;20793;-87
2021/10/07 13:21:59;;;;;;;0.00;0.00;;;;;;;;;;5003367;28;20042;-87
2021/10/07 13:24:26;;;;;;;0.28;0.28;;;;;;;;;;5003559;28;20038;-83
2021/10/07 13:26:58;;;;;;;0.00;0.00;;;;;;;;;;5002888;28;20044;-84
2021/10/07 13:29:24;;;;;;;0.00;0.00;;;;;;;;;;5003825;28;20053;-83
2021/10/07 13:31:50;;;;;;;0.00;0.00;;;;;;;;;;5003449;28;20041;-83
2021/10/07 13:34:16;;;;;;;0.00;0.00;;;;;;;;;;5005893;28;20037;-83
2021/10/07 13:36:44;;;;;;;0.00;0.00;;;;;;;;;;5003584;28;20033;-83
2021/10/07 13:39:10;;;;;;;0.00;0.00;;;;;;;;;;5003407;28;20291;-86
2021/10/07 13:41:36;;;;;;;0.10;0.10;;;;;;;;;;5003779;28;20785;-86
2021/10/07 13:44:02;;;;;;;0.05;0.05;;;;;;;;;;5003214;28;20030;-87
2021/10/07 13:46:32;;;;;;;0.00;0.00;;;;;;;;;;5005560;28;20026;-86
2021/10/07 13:48:58;;;;;;;0.00;0.00;;;;;;;;;;5002613;28;20339;-86
2021/10/07 13:51:24;;;;;;;0.00;0.00;;;;;;;;;;5003842;28;20176;-86
2021/10/07 13:53:50;;;;;;;0.05;0.05;;;;;;;;;;5003190;28;20037;-85
2021/10/07 13:56:17;;;;;;;0.10;0.10;;;;;;;;;;5003374;28;20036;-86
2021/10/07 13:58:43;;;;;;;;;;;;;;;;;;5004111;28;20107;-85
2021/10/07 14:01:09;;;;;;;0.00;0.00;;;;;;;;;;5004963;28;20386;-86
2021/10/07 14:03:35;;;;;;;0.03;0.03;;;;;;;;;;5003117;28;20033;-87
2021/10/07 14:06:03;;;;;;;0.00;0.00;;;;;;;;;;5003517;28;20114;-87
2021/10/07 14:08:29;;;;;;;0.00;0.00;;;;;;;;;;5003076;28;20033;-86
2021/10/07 14:10:56;;;;;;;0.00;0.00;;;;;;;;;;5001721;28;20019;-86
2021/10/07 14:13:22;;;;;;;;;;;;;;;;;;5005590;28;20446;-87
2021/10/07 14:15:48;;;;;;;0.10;0.10;;;;;;;;;;4999716;28;19910;-86
2021/10/07 14:18:14;;;;;;;0.08;0.08;;;;;;;;;;5002924;28;20096;-86
2021/10/07 14:20:42;;;;;;;0.00;0.00;;;;;;;;;;5003358;28;20038;-87
2021/10/07 14:23:08;;;;;;;0.75;0.47;;;;;;;;;;5003177;28;20406;-86
2021/10/07 14:25:34;;;;;;;0.93;0.75;;;;;;;;;;5004568;28;20410;-86
2021/10/07 14:28:03;;;;;;;0.28;0.28;;;;;;;;;;5003774;28;20437;-86
2021/10/07 14:30:30;;;;;;;0.30;0.30;;;;;;;;;;5003074;28;20549;-87
2021/10/07 14:32:56;;;;;;;0.00;0.00;;;;;;;;;;5005101;28;20042;-86
2021/10/07 14:35:22;;;;;;;0.00;0.00;;;;;;;;;;5007549;28;20120;-86
2021/10/07 14:37:48;;;;;;;0.10;0.10;;;;;;;;;;5006786;28;20037;-86
2021/10/07 14:40:14;;;;;;;0.03;0.03;;;;;;;;;;5009129;28;20029;-86
2021/10/07 14:42:40;;;;;;;2.63;0.20;;;;;;;;;;5007473;28;20745;-88
2021/10/07 14:45:08;;;;;;;0.00;0.00;;;;;;;;;;5006438;28;20030;-87
2021/10/07 14:47:34;;;;;;;0.00;0.00;;;;;;;;;;5005613;28;20041;-86
2021/10/07 14:50:00;;;;;;;0.00;0.00;;;;;;;;;;5007019;28;20026;-87
2021/10/07 14:52:26;;;;;;;0.00;0.00;;;;;;;;;;5008392;28;20070;-86